Time;durP1;ratioP1;P1;durP2;ratioP2;P2;SDS_P1;SDS_P2;PMS_P1;PMS_P2;Temp;Humidity;BMP_temperature;BMP_pressure;BME280_temperature;BME280_humidity;BME280_pressure;Samples;Min_cycle;Max_cycle;Signal;HPM_P1;HPM_P2
2023/11/26 00:02:08;;;;;;;3.85;1.98;;;;;;;0.64;100.00;101009.31;6251211;28;20049;-72
2023/11/26 00:05:09;;;;;;;7.93;2.15;;;;;;;0.75;100.00;101011.78;6250905;28;20060;-70
2023/11/26 00:08:11;;;;;;;3.15;1.42;;;;;;;0.74;100.00;101005.78;6250727;28;20354;-70
2023/11/26 00:11:12;;;;;;;5.13;1.63;;;;;;;0.73;100.00;101013.56;6251104;28;20053;-71
2023/11/26 00:14:15;;;;;;;5.55;1.40;;;;;;;0.66;100.00;101014.47;6250651;28;20045;-70
2023/11/26 00:17:20;;;;;;;3.85;1.60;;;;;;;0.61;100.00;101016.25;6251061;28;20048;-70
2023/11/26 00:20:21;;;;;;;6.40;2.33;;;;;;;0.63;100.00;101012.75;6250897;28;20187;-70
2023/11/26 00:23:23;;;;;;;4.10;1.60;;;;;;;0.57;100.00;101004.19;6250675;28;20049;-70
2023/11/26 00:26:24;;;;;;;1.15;0.95;;;;;;;0.60;100.00;101009.34;6250631;28;20045;-70
2023/11/26 00:29:27;;;;;;;5.38;1.90;;;;;;;0.52;100.00;101005.97;6250857;28;20060;-70
2023/11/26 00:32:28;;;;;;;1.88;1.25;;;;;;;0.54;100.00;101009.38;6250307;28;20430;-70
2023/11/26 00:35:30;;;;;;;1.88;1.13;;;;;;;0.65;100.00;101010.16;6250731;28;20054;-70
2023/11/26 00:38:31;;;;;;;3.40;1.30;;;;;;;0.72;100.00;101010.09;6250307;28;20049;-70
2023/11/26 00:41:33;;;;;;;2.95;1.63;;;;;;;0.71;100.00;101021.31;6250598;28;20057;-70
2023/11/26 00:44:35;;;;;;;6.13;1.70;;;;;;;0.72;100.00;101010.09;6250038;28;20052;-70
2023/11/26 00:47:37;;;;;;;4.10;1.35;;;;;;;0.67;100.00;101013.59;6250034;28;20328;-70
2023/11/26 00:50:38;;;;;;;2.58;1.65;;;;;;;0.53;100.00;101016.28;6265556;28;20053;-70
2023/11/26 00:53:39;;;;;;;3.08;1.38;;;;;;;0.51;100.00;101015.44;6267820;28;20055;-70
2023/11/26 00:56:41;;;;;;;2.78;1.30;;;;;;;0.43;100.00;101017.22;6267923;28;20056;-70
2023/11/26 00:59:44;;;;;;;1.63;1.38;;;;;;;0.29;100.00;101017.34;6274909;28;20061;-70
2023/11/26 01:02:45;;;;;;;1.50;1.25;;;;;;;0.32;100.00;101029.34;6282996;28;20045;-70
2023/11/26 01:05:47;;;;;;;3.67;1.42;;;;;;;0.45;100.00;101020.66;6271700;28;20064;-70
2023/11/26 01:08:48;;;;;;;2.63;1.10;;;;;;;0.53;100.00;101029.22;6279872;28;20049;-70
2023/11/26 01:11:50;;;;;;;1.83;1.08;;;;;;;0.56;100.00;101025.75;6279816;28;20056;-70
2023/11/26 01:14:53;;;;;;;2.38;1.27;;;;;;;0.60;100.00;101030.91;6279476;28;20052;-70
2023/11/26 01:17:54;;;;;;;2.33;1.55;;;;;;;0.61;100.00;101032.59;6279841;28;20052;-70
2023/11/26 01:20:55;;;;;;;3.28;1.52;;;;;;;0.61;100.00;101034.34;6279608;28;20056;-70
2023/11/26 01:23:57;;;;;;;3.88;2.00;;;;;;;0.48;100.00;101037.00;6279394;28;20072;-70
2023/11/26 01:26:58;;;;;;;3.38;1.45;;;;;;;0.63;100.00;101030.00;6279449;28;20049;-70
2023/11/26 01:30:01;;;;;;;2.70;1.30;;;;;;;0.57;100.00;101036.09;6269895;28;20437;-70
2023/11/26 01:33:03;;;;;;;3.50;1.50;;;;;;;0.54;100.00;101040.41;6254420;28;20056;-70
2023/11/26 01:36:07;;;;;;;2.10;1.38;;;;;;;0.50;100.00;101043.03;6254511;28;20045;-70
2023/11/26 01:39:09;;;;;;;2.78;1.42;;;;;;;0.46;100.00;101038.75;6254575;28;20049;-69
2023/11/26 01:42:10;;;;;;;3.05;1.20;;;;;;;0.46;100.00;101048.25;6254566;28;20076;-69
2023/11/26 01:45:13;;;;;;;6.78;1.50;;;;;;;0.44;100.00;101040.47;6254181;28;20053;-70
2023/11/26 01:48:15;;;;;;;2.55;1.20;;;;;;;0.39;100.00;101042.25;6254492;28;20050;-70
2023/11/26 01:51:20;;;;;;;2.63;1.25;;;;;;;0.42;100.00;101050.00;6254352;28;20085;-70
2023/11/26 01:54:21;;;;;;;1.80;1.27;;;;;;;0.36;100.00;101042.25;6301229;22;20080;-75
2023/11/26 01:57:23;;;;;;;3.83;1.52;;;;;;;0.38;100.00;101040.53;6278763;28;20438;-75
2023/11/26 02:00:25;;;;;;;5.28;1.63;;;;;;;0.42;100.00;101038.78;6261420;28;20049;-75
2023/11/26 02:03:27;;;;;;;3.85;1.40;;;;;;;0.49;100.00;101053.38;6261603;28;20052;-75
2023/11/26 02:06:28;;;;;;;3.33;1.42;;;;;;;0.54;100.00;101049.03;6278586;28;20045;-75
2023/11/26 02:09:30;;;;;;;7.40;2.10;;;;;;;0.50;100.00;101050.81;6278759;28;20052;-76
2023/11/26 02:12:32;;;;;;;2.83;1.70;;;;;;;0.42;100.00;101054.31;6278239;28;20045;-76
2023/11/26 02:15:35;;;;;;;11.35;1.95;;;;;;;0.56;100.00;101054.22;6278574;28;20053;-75
2023/11/26 02:18:37;;;;;;;2.78;1.88;;;;;;;0.48;100.00;101055.09;6278735;28;20052;-75
2023/11/26 02:21:38;;;;;;;2.35;1.25;;;;;;;0.63;100.00;101054.13;6278462;28;20052;-75
2023/11/26 02:24:44;;;;;;;1.58;1.30;;;;;;;0.63;100.00;101051.53;6278366;28;20053;-75
2023/11/26 02:27:46;;;;;;;8.27;1.92;;;;;;;0.73;100.00;101057.53;6278160;28;20354;-76
2023/11/26 02:30:47;;;;;;;2.83;1.70;;;;;;;0.72;100.00;101055.78;6278434;28;20060;-76
2023/11/26 02:33:48;;;;;;;2.22;1.23;;;;;;;0.70;100.00;101049.78;6278109;28;20053;-76
2023/11/26 02:36:50;;;;;;;9.63;2.30;;;;;;;0.68;100.00;101044.63;6277849;28;20349;-76
2023/11/26 02:39:53;;;;;;;5.10;2.10;;;;;;;0.66;100.00;101038.59;6278078;28;20056;-76
2023/11/26 02:42:56;;;;;;;3.45;2.00;;;;;;;0.60;100.00;101042.97;6278035;28;20045;-76
2023/11/26 02:45:58;;;;;;;12.38;2.28;;;;;;;0.73;100.00;101050.63;6277680;28;20071;-75
2023/11/26 02:48:59;;;;;;;6.00;2.08;;;;;;;0.74;100.00;101043.72;6278049;28;20049;-75
2023/11/26 02:52:00;;;;;;;7.47;1.90;;;;;;;0.74;100.00;101048.88;6278795;28;20048;-76
2023/11/26 02:55:03;;;;;;;3.58;1.80;;;;;;;0.74;100.00;101054.06;6271350;28;20049;-75
2023/11/26 02:58:05;;;;;;;4.22;1.83;;;;;;;0.65;100.00;101048.97;6270996;28;20479;-75
2023/11/26 03:01:07;;;;;;;4.00;2.10;;;;;;;0.75;100.00;101048.88;6279357;28;20055;-75
2023/11/26 03:04:09;;;;;;;1.77;1.30;;;;;;;0.80;100.00;101042.81;6269111;28;20179;-75
2023/11/26 03:07:11;;;;;;;4.68;2.25;;;;;;;0.75;100.00;101051.44;6277304;28;20075;-75
2023/11/26 03:13:33;;;;;;;6.90;2.20;;;;;;;0.62;100.00;101047.25;6277195;28;20053;-75
2023/11/26 03:16:38;;;;;;;6.30;2.40;;;;;;;0.53;100.00;101044.72;6277316;28;20049;-75
2023/11/26 03:19:47;;;;;;;18.83;2.50;;;;;;;0.53;100.00;101049.91;6277059;28;20354;-75
2023/11/26 03:22:48;;;;;;;2.53;1.90;;;;;;;0.47;100.00;101044.78;6275611;28;20064;-75
2023/11/26 03:25:52;;;;;;;4.53;2.22;;;;;;;0.49;100.00;101046.47;6276951;28;20045;-75
2023/11/26 03:28:54;;;;;;;4.10;1.85;;;;;;;0.50;100.00;101049.94;6276764;28;20084;-75
2023/11/26 03:31:55;;;;;;;4.32;1.58;;;;;;;0.48;100.00;101056.84;6277004;28;20079;-75
2023/11/26 03:34:57;;;;;;;5.15;2.03;;;;;;;0.47;100.00;101062.88;6276490;28;20131;-75
2023/11/26 03:37:58;;;;;;;3.15;2.05;;;;;;;0.33;100.00;101073.31;6276609;28;20048;-76
2023/11/26 03:41:01;;;;;;;8.60;2.40;;;;;;;0.31;100.00;101066.41;6276483;28;20326;-75
2023/11/26 03:44:02;;;;;;;3.90;2.20;;;;;;;0.36;100.00;101069.84;6276251;28;20357;-75
2023/11/26 03:47:04;;;;;;;2.60;1.85;;;;;;;0.38;100.00;101066.38;6276373;28;20049;-75
2023/11/26 03:50:09;;;;;;;3.85;1.73;;;;;;;0.39;100.00;101062.06;6276593;28;20098;-75
2023/11/26 03:53:10;;;;;;;2.45;1.58;;;;;;;0.35;100.00;101074.16;6275953;28;20413;-75
2023/11/26 03:56:14;;;;;;;3.40;2.15;;;;;;;0.31;100.00;101082.78;6276075;28;20060;-75
2023/11/26 03:59:15;;;;;;;2.63;1.67;;;;;;;0.29;100.00;101083.69;6276365;28;20045;-75
2023/11/26 04:02:17;;;;;;;6.00;2.15;;;;;;;0.37;100.00;101081.91;6275920;28;20122;-76
2023/11/26 04:05:18;;;;;;;3.75;1.80;;;;;;;0.45;100.00;101090.44;6276100;28;20064;-75
2023/11/26 04:08:20;;;;;;;6.00;2.22;;;;;;;0.50;100.00;101089.59;6275686;28;20045;-76
2023/11/26 04:11:23;;;;;;;3.97;2.13;;;;;;;0.55;100.00;101102.47;6276058;28;20049;-75
2023/11/26 04:14:24;;;;;;;4.53;2.30;;;;;;;0.57;100.00;101092.97;6275576;28;20067;-76
2023/11/26 04:17:26;;;;;;;4.88;2.40;;;;;;;0.61;100.00;101094.66;6276021;28;20052;-76
2023/11/26 04:20:28;;;;;;;10.05;2.25;;;;;;;0.64;100.00;101096.38;6275649;28;20052;-76
2023/11/26 04:23:29;;;;;;;3.58;1.90;;;;;;;0.60;100.00;101097.28;6275694;28;20060;-76
2023/11/26 04:26:32;;;;;;;4.38;2.28;;;;;;;0.60;100.00;101094.69;6275476;28;20057;-76
2023/11/26 04:29:33;;;;;;;6.93;1.98;;;;;;;0.61;100.00;101089.50;6275430;28;20041;-76
2023/11/26 04:32:35;;;;;;;3.75;1.95;;;;;;;0.56;100.00;101082.66;6275405;28;20468;-76
2023/11/26 04:35:37;;;;;;;7.47;2.60;;;;;;;0.55;100.00;101084.38;6275259;28;20361;-75
2023/11/26 04:38:38;;;;;;;6.85;1.70;;;;;;;0.53;100.00;101083.50;6275141;28;20447;-75
2023/11/26 04:41:41;;;;;;;4.18;1.85;;;;;;;0.44;100.00;101083.56;6269711;28;20076;-76
2023/11/26 04:44:43;;;;;;;4.72;2.33;;;;;;;0.43;100.00;101087.03;6266953;28;20462;-76
2023/11/26 04:47:44;;;;;;;5.07;2.22;;;;;;;0.33;100.00;101070.72;6264433;28;20448;-75
2023/11/26 04:50:46;;;;;;;7.13;2.83;;;;;;;0.29;100.00;101074.19;6274447;28;20059;-76
2023/11/26 04:53:47;;;;;;;5.50;2.60;;;;;;;0.23;100.00;101069.94;6272359;28;20044;-76
2023/11/26 04:56:51;;;;;;;6.57;2.38;;;;;;;0.21;100.00;101078.53;6270181;28;20202;-76
2023/11/26 04:59:53;;;;;;;4.35;2.10;;;;;;;0.15;100.00;101078.59;6270564;28;20044;-76
2023/11/26 05:02:55;;;;;;;2.53;1.80;;;;;;;0.17;100.00;101080.28;6258275;28;20045;-76
2023/11/26 05:05:56;;;;;;;3.45;2.10;;;;;;;0.17;100.00;101087.19;6262661;28;20452;-76
2023/11/26 05:08:58;;;;;;;5.50;2.00;;;;;;;0.15;100.00;101074.28;6257828;28;20434;-79
2023/11/26 05:12:01;;;;;;;9.10;2.95;;;;;;;0.21;100.00;101087.16;6272521;28;20045;-78
2023/11/26 05:15:04;;;;;;;4.88;2.17;;;;;;;0.34;100.00;101079.34;6271524;28;20048;-80
2023/11/26 05:18:06;;;;;;;10.68;3.35;;;;;;;0.39;100.00;101083.59;6271628;28;20159;-76
2023/11/26 05:21:09;;;;;;;6.35;3.00;;;;;;;0.43;100.00;101080.13;6253606;28;20048;-76
2023/11/26 05:24:10;;;;;;;3.58;2.33;;;;;;;0.50;100.00;101084.41;6256630;28;20046;-77
2023/11/26 05:27:13;;;;;;;7.35;2.50;;;;;;;0.57;100.00;101084.34;6270901;28;20049;-79
2023/11/26 05:30:14;;;;;;;3.20;2.20;;;;;;;0.63;100.00;101081.72;6261997;28;20099;-75
2023/11/26 05:33:16;;;;;;;7.90;2.83;;;;;;;0.66;100.00;101081.69;6264403;28;20058;-74
2023/11/26 05:36:17;;;;;;;6.43;3.38;;;;;;;0.73;100.00;101085.97;6266130;28;20044;-76
2023/11/26 05:39:19;;;;;;;5.90;3.45;;;;;;;0.67;100.00;101080.81;6261735;28;20045;-76
2023/11/26 05:42:24;;;;;;;5.88;3.45;;;;;;;0.67;100.00;101075.66;6249614;28;20053;-77
2023/11/26 05:45:26;;;;;;;9.15;3.65;;;;;;;0.67;100.00;101078.25;6249141;28;20366;-77
2023/11/26 05:48:27;;;;;;;4.93;2.58;;;;;;;0.70;100.00;101073.06;6253690;28;20046;-76
2023/11/26 05:51:29;;;;;;;9.57;4.35;;;;;;;0.74;100.00;101078.19;6254403;28;20046;-77
2023/11/26 05:54:30;;;;;;;8.35;4.13;;;;;;;0.73;100.00;101071.31;6254003;28;20046;-75
2023/11/26 05:57:33;;;;;;;9.75;4.20;;;;;;;0.68;100.00;101072.19;6254490;28;20049;-77
2023/11/26 06:00:34;;;;;;;24.58;6.55;;;;;;;0.75;100.00;101087.66;6254034;28;20053;-77
2023/11/26 06:03:36;;;;;;;19.23;5.35;;;;;;;0.80;100.00;101081.59;6254155;28;20049;-77
2023/11/26 06:06:38;;;;;;;13.95;5.28;;;;;;;0.79;100.00;101075.56;6253769;28;20053;-75
2023/11/26 06:09:39;;;;;;;21.80;5.32;;;;;;;0.79;100.00;101080.75;6254106;28;20061;-75
2023/11/26 06:12:42;;;;;;;13.00;4.90;;;;;;;0.82;100.00;101075.56;6253827;28;20132;-75
2023/11/26 06:15:43;;;;;;;25.55;7.15;;;;;;;0.86;100.00;101077.22;6271061;28;20056;-75
2023/11/26 06:18:45;;;;;;;23.88;6.68;;;;;;;0.84;100.00;101078.13;6277828;28;20038;-75
2023/11/26 06:21:48;;;;;;;21.42;6.57;;;;;;;0.87;100.00;101071.19;6276759;28;20243;-75
2023/11/26 06:24:50;;;;;;;17.10;5.25;;;;;;;0.84;100.00;101073.81;6276744;28;20045;-75
2023/11/26 06:27:52;;;;;;;19.23;5.43;;;;;;;0.85;100.00;101075.50;6267786;28;20052;-75
2023/11/26 06:30:54;;;;;;;13.65;5.20;;;;;;;0.88;100.00;101077.22;6265975;28;20048;-75
2023/11/26 06:33:56;;;;;;;12.77;4.97;;;;;;;0.89;100.00;101072.03;6261867;28;20091;-75
2023/11/26 06:36:58;;;;;;;14.68;5.30;;;;;;;0.93;100.00;101067.69;6260125;28;20132;-75
2023/11/26 06:40:00;;;;;;;10.45;4.68;;;;;;;0.89;100.00;101061.69;6254553;28;20053;-75
2023/11/26 06:43:02;;;;;;;12.95;4.65;;;;;;;0.94;100.00;101059.06;6253012;28;20056;-76
2023/11/26 06:46:04;;;;;;;16.77;4.65;;;;;;;0.93;100.00;101062.53;6253078;28;20046;-75
2023/11/26 06:49:05;;;;;;;12.07;4.57;;;;;;;0.86;100.00;101059.13;6252830;28;20048;-75
2023/11/26 06:52:07;;;;;;;17.42;4.25;;;;;;;0.87;100.00;101053.09;6261114;28;20456;-75
2023/11/26 06:55:09;;;;;;;11.75;3.92;;;;;;;0.84;100.00;101060.00;6263492;28;20092;-75
2023/11/26 06:58:11;;;;;;;11.48;4.10;;;;;;;0.90;100.00;101053.03;6268335;28;20041;-75
2023/11/26 07:01:14;;;;;;;8.18;3.53;;;;;;;0.96;100.00;101046.97;6279092;28;20048;-75
2023/11/26 07:04:15;;;;;;;10.30;4.00;;;;;;;0.95;100.00;101055.59;6268809;28;20533;-76
2023/11/26 07:07:19;;;;;;;7.85;3.70;;;;;;;0.96;100.00;101042.66;6277163;28;20126;-75
2023/11/26 07:10:21;;;;;;;6.72;3.33;;;;;;;1.00;100.00;101049.53;6277358;28;20055;-76
2023/11/26 07:13:23;;;;;;;9.10;3.92;;;;;;;1.02;100.00;101055.53;6277030;28;20053;-75
2023/11/26 07:16:26;;;;;;;6.72;3.40;;;;;;;1.04;100.00;101052.91;6277013;28;20475;-76
2023/11/26 07:19:27;;;;;;;9.25;3.45;;;;;;;1.02;100.00;101050.34;6277150;28;20045;-75
2023/11/26 07:22:30;;;;;;;13.65;4.07;;;;;;;0.94;100.00;101041.78;6277044;28;20056;-76
2023/11/26 07:25:31;;;;;;;10.20;3.58;;;;;;;0.92;100.00;101037.53;6283738;28;20068;-76
2023/11/26 07:28:34;;;;;;;4.90;2.83;;;;;;;0.95;100.00;101038.38;6269437;28;20048;-76
2023/11/26 07:31:36;;;;;;;7.97;2.70;;;;;;;1.02;100.00;101032.25;6265374;28;20048;-76
2023/11/26 07:34:37;;;;;;;6.75;3.33;;;;;;;1.02;100.00;101031.38;6277941;28;20053;-75
2023/11/26 07:37:38;;;;;;;5.75;3.45;;;;;;;1.00;100.00;101035.72;6274089;28;20056;-75
2023/11/26 07:40:40;;;;;;;10.45;4.07;;;;;;;1.07;100.00;101024.44;6276498;28;20045;-75
2023/11/26 07:43:43;;;;;;;12.27;3.63;;;;;;;1.10;100.00;101029.59;6262205;28;20045;-75
2023/11/26 07:46:45;;;;;;;6.93;3.45;;;;;;;1.16;100.00;101018.31;6251667;28;20053;-75
2023/11/26 07:49:46;;;;;;;9.65;3.75;;;;;;;1.19;100.00;101031.22;6251745;28;20053;-75
2023/11/26 07:52:47;;;;;;;9.27;4.07;;;;;;;1.23;100.00;101020.81;6251383;28;20056;-75
2023/11/26 07:55:49;;;;;;;11.20;3.33;;;;;;;1.27;100.00;101014.75;6285260;22;20057;-71
2023/11/26 07:58:52;;;;;;;5.35;3.38;;;;;;;1.32;100.00;101011.22;6280014;28;20041;-71
2023/11/26 08:01:54;;;;;;;8.50;4.07;;;;;;;1.35;100.00;101006.03;6289306;28;20052;-71
2023/11/26 08:04:55;;;;;;;5.78;3.53;;;;;;;1.33;100.00;100995.69;6281295;28;20460;-71
2023/11/26 08:07:57;;;;;;;8.40;3.47;;;;;;;1.30;100.00;101000.03;6281238;28;20052;-72
2023/11/26 08:11:00;;;;;;;7.90;3.67;;;;;;;1.37;100.00;101005.13;6268677;28;20048;-76
2023/11/26 08:14:04;;;;;;;5.88;3.50;;;;;;;1.43;100.00;101006.78;6286372;28;20136;-71
2023/11/26 08:17:06;;;;;;;4.60;3.00;;;;;;;1.46;100.00;101005.03;6267326;28;20460;-71
2023/11/26 08:20:10;;;;;;;5.32;3.20;;;;;;;1.50;100.00;101004.13;6275669;28;20361;-71
2023/11/26 08:23:12;;;;;;;9.00;4.13;;;;;;;1.55;100.00;100998.03;6275672;28;20063;-72
2023/11/26 08:26:15;;;;;;;6.25;3.38;;;;;;;1.59;100.00;100997.09;6275282;28;20469;-71
2023/11/26 08:29:18;;;;;;;12.45;3.67;;;;;;;1.51;100.00;100998.06;6275466;28;20045;-70
2023/11/26 08:32:20;;;;;;;6.80;3.40;;;;;;;1.62;100.00;100999.66;6275349;28;20171;-70
2023/11/26 08:35:21;;;;;;;7.15;3.58;;;;;;;1.64;100.00;100992.75;6275628;28;20055;-70
2023/11/26 08:38:23;;;;;;;9.18;3.45;;;;;;;1.64;100.00;101011.72;6275098;28;20460;-70
2023/11/26 08:41:25;;;;;;;6.93;3.60;;;;;;;1.62;100.00;101012.59;6275443;28;20075;-70
2023/11/26 08:44:30;;;;;;;9.55;3.42;;;;;;;1.61;100.00;101008.31;6275283;28;20049;-70
2023/11/26 08:47:34;;;;;;;7.50;3.17;;;;;;;1.66;100.00;101002.19;6275282;28;20433;-70
2023/11/26 08:50:35;;;;;;;7.10;2.92;;;;;;;1.79;100.00;101008.06;6275207;28;20049;-70
2023/11/26 08:53:37;;;;;;;3.90;2.13;;;;;;;1.91;100.00;101015.69;6275018;28;20438;-70
2023/11/26 08:56:38;;;;;;;4.15;2.08;;;;;;;2.04;100.00;101011.19;6275138;28;20052;-70
2023/11/26 08:59:41;;;;;;;4.13;2.08;;;;;;;2.13;100.00;101005.00;6275108;28;20055;-70
2023/11/26 09:02:42;;;;;;;2.72;1.95;;;;;;;2.17;100.00;101012.72;6274994;28;20049;-70
2023/11/26 09:05:43;;;;;;;3.78;2.47;;;;;;;2.22;100.00;101005.72;6275045;28;20045;-70
2023/11/26 09:08:49;;;;;;;6.93;1.77;;;;;;;2.38;100.00;101021.06;6274917;28;20140;-70
2023/11/26 09:11:50;;;;;;;2.75;1.55;;;;;;;2.47;100.00;101021.78;6274983;28;20053;-70
2023/11/26 09:14:53;;;;;;;5.00;1.80;;;;;;;2.59;100.00;101009.47;6274947;28;20056;-70
2023/11/26 09:17:55;;;;;;;6.85;1.98;;;;;;;2.65;100.00;101010.25;6274947;28;20111;-70
2023/11/26 09:20:57;;;;;;;5.45;2.30;;;;;;;2.70;100.00;101005.84;6274872;28;20441;-71
2023/11/26 09:23:58;;;;;;;3.42;1.70;;;;;;;2.75;100.00;101004.03;6279803;28;20052;-70
2023/11/26 09:27:00;;;;;;;5.57;2.65;;;;;;;2.75;100.00;101006.63;6279651;28;20056;-70
2023/11/26 09:30:04;;;;;;;5.07;2.63;;;;;;;2.80;100.00;101002.19;6279531;28;20330;-71
2023/11/26 09:33:05;;;;;;;6.40;2.50;;;;;;;2.82;100.00;100997.00;6279360;28;20049;-70
2023/11/26 09:36:07;;;;;;;5.82;2.78;;;;;;;2.85;100.00;100994.34;6279397;28;20092;-70
2023/11/26 09:39:10;;;;;;;6.97;2.78;;;;;;;2.86;100.00;100996.06;6279572;28;20054;-71
2023/11/26 09:42:13;;;;;;;7.85;4.03;;;;;;;2.90;100.00;100995.09;6279552;28;20056;-70
2023/11/26 09:45:16;;;;;;;7.13;3.17;;;;;;;2.96;100.00;100991.56;6279104;28;20121;-70
2023/11/26 09:48:18;;;;;;;12.10;4.05;;;;;;;2.98;100.00;101000.16;6279488;28;20045;-71
2023/11/26 09:51:23;;;;;;;9.43;3.85;;;;;;;2.95;100.00;100998.50;6279102;28;20250;-70
2023/11/26 09:54:25;;;;;;;8.98;3.85;;;;;;;3.03;100.00;100993.16;6279547;28;20061;-70
2023/11/26 09:57:28;;;;;;;7.90;3.38;;;;;;;3.05;100.00;100994.00;6278845;28;20060;-71
2023/11/26 10:00:31;;;;;;;6.63;3.55;;;;;;;3.00;100.00;101003.63;6279026;28;20053;-70
2023/11/26 10:03:32;;;;;;;7.97;3.70;;;;;;;3.14;100.00;100998.16;6278875;28;20052;-71
2023/11/26 10:06:34;;;;;;;12.27;4.40;;;;;;;3.19;100.00;101002.38;6278469;28;20426;-71
2023/11/26 10:09:36;;;;;;;8.90;4.30;;;;;;;3.27;100.00;101002.22;6278782;28;20045;-71
2023/11/26 10:12:51;;;;;;;7.90;4.20;;;;;;;3.33;100.00;100999.53;6278347;28;20052;-71
2023/11/26 10:15:54;;;;;;;7.85;4.22;;;;;;;3.36;100.00;100996.88;6278634;28;20438;-71
2023/11/26 10:18:56;;;;;;;8.85;3.85;;;;;;;3.31;100.00;100991.75;6278449;28;20048;-71
2023/11/26 10:21:59;;;;;;;8.32;4.18;;;;;;;3.29;100.00;100995.28;6278419;28;20349;-70
2023/11/26 10:25:12;;;;;;;14.73;4.30;;;;;;;3.30;100.00;100999.56;6278213;28;20049;-70
2023/11/26 10:28:14;;;;;;;11.18;4.80;;;;;;;3.13;100.00;100989.50;6278562;28;20467;-70
2023/11/26 10:31:17;;;;;;;12.65;4.93;;;;;;;3.21;100.00;100982.41;6278200;28;20045;-70
2023/11/26 10:34:18;;;;;;;10.10;4.35;;;;;;;3.17;100.00;100979.91;6278083;28;20464;-70
2023/11/26 10:37:21;;;;;;;8.95;4.95;;;;;;;3.22;100.00;100968.53;6277770;28;20361;-71
2023/11/26 10:40:22;;;;;;;8.80;4.40;;;;;;;3.23;100.00;100966.84;6278296;28;20045;-70
2023/11/26 10:43:25;;;;;;;13.57;4.63;;;;;;;3.26;100.00;100964.16;6277892;28;20060;-70
2023/11/26 10:46:33;;;;;;;11.45;4.80;;;;;;;3.27;100.00;100958.94;6278106;28;20051;-71
2023/11/26 10:49:40;;;;;;;11.80;5.63;;;;;;;3.27;100.00;100960.66;6277964;28;20422;-70
2023/11/26 10:52:49;;;;;;;8.75;4.65;;;;;;;3.29;100.00;100966.69;6277808;28;20103;-71
2023/11/26 10:55:55;;;;;;;9.80;4.72;;;;;;;3.33;100.00;100960.56;6277599;28;20079;-71
2023/11/26 10:58:58;;;;;;;12.13;4.60;;;;;;;3.42;100.00;100957.78;6277639;28;20119;-71
2023/11/26 11:02:03;;;;;;;8.95;4.93;;;;;;;3.49;100.00;100963.69;6277576;28;20049;-70
2023/11/26 11:05:06;;;;;;;17.33;5.68;;;;;;;3.54;100.00;100973.13;6277231;28;20078;-71
2023/11/26 11:08:08;;;;;;;12.50;4.82;;;;;;;3.57;100.00;100972.19;6277327;28;20469;-70
2023/11/26 11:11:19;;;;;;;12.45;4.90;;;;;;;3.61;100.00;100975.56;6277167;28;20052;-71
2023/11/26 11:14:20;;;;;;;11.45;6.13;;;;;;;3.64;100.00;100976.38;6277246;28;20053;-70
2023/11/26 11:17:34;;;;;;;14.55;4.70;;;;;;;3.63;100.00;100969.44;6276743;28;20048;-71
2023/11/26 11:21:01;;;;;;;11.13;5.43;;;;;;;3.62;100.00;100967.75;6277194;28;20049;-71
2023/11/26 11:24:02;;;;;;;11.85;5.00;;;;;;;3.68;100.00;100970.22;6277156;28;20051;-70
2023/11/26 11:27:04;;;;;;;8.60;4.82;;;;;;;3.66;100.00;100960.75;6276908;28;20053;-71
2023/11/26 11:30:46;;;;;;;15.35;4.97;;;;;;;3.64;100.00;100963.38;6277135;28;20041;-70
2023/11/26 11:34:20;;;;;;;9.05;4.72;;;;;;;3.73;100.00;100959.72;6276580;28;20045;-70
2023/11/26 11:37:22;;;;;;;9.15;4.90;;;;;;;3.78;100.00;100963.94;6276586;28;20132;-71
2023/11/26 11:40:53;;;;;;;11.75;4.60;;;;;;;3.86;100.00;100965.50;6277080;28;20041;-71
2023/11/26 11:44:27;;;;;;;11.35;4.40;;;;;;;3.89;100.00;100961.09;6273983;28;20343;-71
2023/11/26 11:47:42;;;;;;;15.48;5.13;;;;;;;4.01;100.00;100954.78;6276659;28;20048;-70
2023/11/26 11:50:43;;;;;;;12.45;5.18;;;;;;;4.07;100.00;100958.06;6276146;28;20456;-71
2023/11/26 11:53:45;;;;;;;9.00;4.78;;;;;;;4.13;100.00;100957.06;6276377;28;20052;-71
2023/11/26 11:56:47;;;;;;;11.48;4.57;;;;;;;4.19;100.00;100953.50;6276008;28;20354;-70
2023/11/26 11:59:51;;;;;;;7.85;4.63;;;;;;;4.24;100.00;100955.09;6276376;28;20426;-70
2023/11/26 12:02:53;;;;;;;12.80;4.75;;;;;;;4.20;100.00;100952.59;6275925;28;20052;-70
2023/11/26 12:06:09;;;;;;;10.07;5.18;;;;;;;4.25;100.00;100958.53;6276241;28;20049;-71
2023/11/26 12:09:12;;;;;;;12.38;5.20;;;;;;;4.24;100.00;100956.84;6276023;28;20056;-71
2023/11/26 12:12:18;;;;;;;9.40;4.22;;;;;;;4.30;100.00;100959.28;6276065;28;20333;-70
2023/11/26 12:15:21;;;;;;;10.60;4.88;;;;;;;4.33;100.00;100961.81;6275440;28;20052;-71
2023/11/26 12:18:22;;;;;;;13.00;5.22;;;;;;;4.32;100.00;100963.56;6276050;28;20055;-71
2023/11/26 12:21:23;;;;;;;10.23;4.97;;;;;;;4.40;100.00;100960.75;6275646;28;20045;-71
2023/11/26 12:24:25;;;;;;;12.88;4.93;;;;;;;4.37;100.00;100960.84;6275712;28;20056;-70
2023/11/26 12:27:29;;;;;;;10.85;4.47;;;;;;;4.38;100.00;100959.94;6275595;28;20048;-71
2023/11/26 12:30:33;;;;;;;11.68;4.68;;;;;;;4.33;100.00;100952.25;6275437;28;20346;-71
2023/11/26 12:33:35;;;;;;;8.18;3.70;;;;;;;4.40;100.00;100955.56;6275592;28;20056;-71
2023/11/26 12:36:36;;;;;;;7.78;3.88;;;;;;;4.39;100.00;100953.84;6275093;28;20048;-71
2023/11/26 12:39:39;;;;;;;11.35;5.18;;;;;;;4.36;100.00;100943.53;6275527;28;20052;-71
2023/11/26 12:42:42;;;;;;;14.05;5.07;;;;;;;4.37;100.00;100937.44;6275050;28;20102;-71
2023/11/26 12:45:45;;;;;;;10.52;4.68;;;;;;;4.31;100.00;100934.97;6275416;28;20138;-71
2023/11/26 12:48:47;;;;;;;12.82;4.97;;;;;;;4.31;100.00;100930.66;6275258;28;20045;-72
2023/11/26 12:51:53;;;;;;;17.52;4.78;;;;;;;4.32;100.00;100929.75;6275293;28;20080;-71
2023/11/26 12:54:55;;;;;;;12.15;4.85;;;;;;;4.33;100.00;100935.78;6274909;28;20083;-71
2023/11/26 12:57:56;;;;;;;9.18;4.80;;;;;;;4.32;100.00;100921.94;6274241;28;20437;-71
2023/11/26 13:01:02;;;;;;;13.10;5.03;;;;;;;4.38;100.00;100933.09;6275082;28;20052;-70
2023/11/26 13:04:04;;;;;;;8.25;4.75;;;;;;;4.36;100.00;100930.53;6275242;28;20437;-73
2023/11/26 13:07:06;;;;;;;11.23;6.05;;;;;;;4.37;100.00;100928.78;6274819;28;20441;-70
2023/11/26 13:10:08;;;;;;;15.63;6.60;;;;;;;4.32;100.00;100931.50;6275099;28;20049;-72
2023/11/26 13:13:12;;;;;;;15.40;6.55;;;;;;;4.34;100.00;100932.28;6274910;28;20049;-72
2023/11/26 13:16:16;;;;;;;17.42;7.07;;;;;;;4.39;100.00;100924.38;6274912;28;20056;-73
2023/11/26 13:19:17;;;;;;;16.77;5.97;;;;;;;4.42;100.00;100932.13;6275014;28;20056;-72
2023/11/26 13:22:20;;;;;;;15.05;6.55;;;;;;;4.45;100.00;100927.69;6274653;28;20056;-73
2023/11/26 13:25:21;;;;;;;12.68;6.55;;;;;;;4.50;100.00;100927.56;6274659;28;20357;-72
2023/11/26 13:28:24;;;;;;;12.30;6.15;;;;;;;4.55;100.00;100921.34;6274738;28;20053;-72
2023/11/26 13:31:27;;;;;;;12.32;6.45;;;;;;;4.61;100.00;100909.94;6274773;28;20460;-73
2023/11/26 13:34:28;;;;;;;15.82;6.80;;;;;;;4.64;100.00;100906.41;6274426;28;20059;-72
2023/11/26 13:37:30;;;;;;;10.90;5.38;;;;;;;4.81;100.00;100905.06;6274615;28;20445;-73
2023/11/26 13:40:31;;;;;;;10.18;5.78;;;;;;;4.78;100.00;100899.94;6274514;28;20075;-73
2023/11/26 13:43:33;;;;;;;9.63;5.10;;;;;;;4.79;100.00;100895.56;6274587;28;20505;-73
2023/11/26 13:46:35;;;;;;;10.50;5.63;;;;;;;4.91;100.00;100895.25;6274575;28;20056;-70
2023/11/26 13:49:37;;;;;;;14.68;6.13;;;;;;;4.87;100.00;100893.63;6274759;28;20064;-72
2023/11/26 13:52:38;;;;;;;11.38;5.45;;;;;;;4.93;100.00;100890.84;6274410;28;20045;-72
2023/11/26 13:55:40;;;;;;;11.88;4.75;;;;;;;4.93;100.00;100896.03;6292272;22;20346;-75
2023/11/26 13:58:42;;;;;;;9.45;4.45;;;;;;;4.94;100.00;100892.53;6249625;28;20449;-75
2023/11/26 14:01:45;;;;;;;12.07;5.72;;;;;;;4.99;100.00;100887.19;6268358;28;20049;-75
2023/11/26 14:04:47;;;;;;;15.13;4.57;;;;;;;4.92;100.00;100885.69;6265659;28;20056;-75
2023/11/26 14:07:49;;;;;;;8.95;4.97;;;;;;;4.86;100.00;100883.22;6250874;28;20075;-75
2023/11/26 14:10:50;;;;;;;8.38;4.65;;;;;;;4.86;100.00;100883.22;6253881;28;20041;-75